Time;durP1;ratioP1;P1;durP2;ratioP2;P2;SDS_P1;SDS_P2;PMS_P1;PMS_P2;Temp;Humidity;BMP_temperature;BMP_pressure;BME280_temperature;BME280_humidity;BME280_pressure;Samples;Min_cycle;Max_cycle;Signal;HPM_P1;HPM_P2
2021/11/19 00:00:45;;;;;;;9.07;3.50;;;;;;;10.14;61.95;100841.16;4904100;28;96526;-83
2021/11/19 00:03:12;;;;;;;5.95;3.08;;;;;;;10.17;62.31;100838.47;4937911;28;96616;-83
2021/11/19 00:05:38;;;;;;;7.28;3.00;;;;;;;10.17;62.50;100829.72;4952260;28;97420;-83
2021/11/19 00:08:04;;;;;;;5.57;3.20;;;;;;;10.14;62.72;100827.19;4923175;28;97783;-83
2021/11/19 00:10:30;;;;;;;5.95;3.15;;;;;;;10.14;62.46;100825.41;4955842;28;96747;-81
2021/11/19 00:12:56;;;;;;;7.18;3.20;;;;;;;10.21;62.20;100823.53;4939192;28;96909;-81
2021/11/19 00:15:21;;;;;;;7.13;3.30;;;;;;;10.23;62.75;100826.97;4954710;28;99815;-80
2021/11/19 00:17:47;;;;;;;7.80;3.20;;;;;;;10.19;63.25;100820.06;4938968;28;100298;-83
2021/11/19 00:20:15;;;;;;;6.93;3.05;;;;;;;10.17;63.33;100834.97;4939700;28;96476;-81
2021/11/19 00:22:40;;;;;;;6.60;3.80;;;;;;;10.13;63.33;100814.97;4955290;28;97044;-82
2021/11/19 00:25:07;;;;;;;8.13;3.42;;;;;;;10.18;63.63;100816.59;4938895;28;97586;-82
2021/11/19 00:27:34;;;;;;;6.72;3.13;;;;;;;10.16;64.17;100820.16;4938778;28;100092;-83
2021/11/19 00:30:00;;;;;;;5.72;2.83;;;;;;;10.10;64.00;100813.28;4923140;28;96814;-83
2021/11/19 00:32:26;;;;;;;6.47;2.70;;;;;;;10.12;64.34;100815.84;4939487;28;96816;-83
2021/11/19 00:34:51;;;;;;;5.63;2.90;;;;;;;10.15;63.42;100806.19;4938863;28;97985;-81
2021/11/19 00:37:18;;;;;;;6.20;2.92;;;;;;;10.16;63.92;100804.41;4938609;28;100353;-82
2021/11/19 00:39:44;;;;;;;9.77;2.95;;;;;;;10.16;63.69;100810.50;4954999;28;96555;-83
2021/11/19 00:42:10;;;;;;;5.63;2.78;;;;;;;10.18;64.13;100798.22;4939283;28;96399;-81
2021/11/19 00:44:36;;;;;;;6.97;3.22;;;;;;;10.14;64.01;100799.19;4922397;28;100457;-83
2021/11/19 00:47:02;;;;;;;5.25;2.88;;;;;;;10.10;63.54;100801.94;4954709;28;99657;-82
2021/11/19 00:49:31;;;;;;;6.47;3.35;;;;;;;10.14;63.95;100803.56;4939032;28;96700;-81
2021/11/19 00:51:58;;;;;;;4.38;2.88;;;;;;;10.14;63.92;100796.56;4922883;28;96514;-83
2021/11/19 00:54:24;;;;;;;5.55;2.80;;;;;;;10.17;64.36;100790.38;4954800;28;98079;-81
2021/11/19 00:56:56;;;;;;;6.43;2.60;;;;;;;10.15;64.19;100795.69;4938979;28;97353;-81
2021/11/19 00:59:22;;;;;;;;;;;;;;;10.15;64.57;100803.56;4938828;28;96804;-81
2021/11/19 01:01:51;;;;;;;5.38;2.65;;;;;;;10.15;64.33;100803.56;4971646;28;96848;-81
2021/11/19 01:04:20;;;;;;;4.53;2.50;;;;;;;10.12;64.77;100802.75;4937952;28;100346;-82
2021/11/19 01:06:48;;;;;;;6.70;3.47;;;;;;;10.16;64.54;100801.78;4938441;28;97305;-80
2021/11/19 01:09:17;;;;;;;6.72;2.90;;;;;;;10.15;64.83;100795.69;4954822;28;96457;-83
2021/11/19 01:11:44;;;;;;;3.22;2.70;;;;;;;10.16;64.49;100799.16;4954918;28;96903;-81
2021/11/19 01:14:15;;;;;;;6.75;2.65;;;;;;;10.12;64.96;100801.00;4937894;28;100737;-82
2021/11/19 01:16:47;;;;;;;4.28;2.40;;;;;;;10.15;64.42;100795.69;4938140;28;100280;-83
2021/11/19 01:19:21;;;;;;;4.55;2.58;;;;;;;10.16;64.81;100794.78;4906489;28;96448;-84
2021/11/19 01:21:56;;;;;;;5.75;2.65;;;;;;;10.15;64.62;100802.66;4922821;28;96415;-83
2021/11/19 01:24:22;;;;;;;5.78;3.08;;;;;;;10.09;65.14;100794.94;4905499;28;100019;-81
2021/11/19 01:26:48;;;;;;;3.15;2.20;;;;;;;10.10;65.39;100799.31;4954327;28;100175;-82
2021/11/19 01:29:16;;;;;;;5.47;3.40;;;;;;;10.11;65.31;100801.88;4938197;28;96592;-81
2021/11/19 01:31:52;;;;;;;3.13;2.25;;;;;;;10.18;65.41;100800.84;4922091;28;96936;-83
2021/11/19 01:34:26;;;;;;;4.55;2.10;;;;;;;10.16;65.54;100786.03;4922934;28;100692;-82
2021/11/19 01:37:13;;;;;;;5.03;2.55;;;;;;;10.17;65.28;100793.88;4937902;28;100369;-80
2021/11/19 01:40:07;;;;;;;6.30;2.58;;;;;;;10.13;66.25;100797.47;4925520;28;96516;-83
2021/11/19 01:42:44;;;;;;;4.90;2.72;;;;;;;10.12;66.90;100798.38;4939037;28;96752;-83
2021/11/19 01:45:14;;;;;;;4.63;2.10;;;;;;;10.09;66.61;100784.47;4921688;28;99116;-81
2021/11/19 01:47:44;;;;;;;3.58;2.10;;;;;;;10.10;67.02;100796.69;4954344;28;100068;-82
2021/11/19 01:51:02;;;;;;;3.28;2.40;;;;;;;10.07;67.65;100784.50;4954280;28;96554;-82
2021/11/19 01:53:37;;;;;;;2.65;2.20;;;;;;;10.03;67.56;100790.72;4928325;28;96896;-83
2021/11/19 01:56:06;;;;;;;5.38;2.67;;;;;;;10.02;68.22;100783.75;4936876;28;100992;-81
2021/11/19 01:58:49;;;;;;;4.78;2.15;;;;;;;9.93;68.81;100773.50;4937244;28;99959;-83
2021/11/19 02:01:20;;;;;;;2.92;1.85;;;;;;;9.94;69.02;100777.81;4921671;28;96508;-83
2021/11/19 02:03:51;;;;;;;5.27;2.40;;;;;;;9.93;69.36;100782.22;4906043;28;96739;-82
2021/11/19 02:06:23;;;;;;;4.27;2.00;;;;;;;9.96;69.40;100778.66;4937970;28;97948;-83
2021/11/19 02:08:56;;;;;;;2.92;1.90;;;;;;;9.95;69.56;100775.19;4937542;28;99065;-81
2021/11/19 02:12:07;;;;;;;3.13;2.08;;;;;;;10.01;69.51;100773.31;4954056;28;96538;-82
2021/11/19 02:15:10;;;;;;;2.10;1.70;;;;;;;9.94;70.36;100772.59;4901476;28;97081;-82
2021/11/19 02:17:38;;;;;;;3.47;2.58;;;;;;;9.92;70.18;100769.16;4901090;28;99270;-82
2021/11/19 02:20:14;;;;;;;2.20;1.83;;;;;;;9.94;70.38;100757.69;4944175;28;100385;-84
2021/11/19 02:22:47;;;;;;;4.43;2.33;;;;;;;9.90;70.78;100758.69;4953471;28;96678;-82
2021/11/19 02:25:17;;;;;;;4.00;2.22;;;;;;;9.84;70.98;100753.59;4921559;28;96891;-81
2021/11/19 02:27:53;;;;;;;3.45;2.20;;;;;;;9.86;70.91;100738.69;4953345;28;100537;-83
2021/11/19 02:30:25;;;;;;;3.53;1.85;;;;;;;9.84;71.72;100742.25;4936400;28;99722;-81
2021/11/19 02:33:05;;;;;;;2.42;1.67;;;;;;;9.82;71.63;100738.78;4921915;28;96480;-84
2021/11/19 02:35:52;;;;;;;2.97;1.92;;;;;;;9.83;71.53;100741.41;4937434;28;96895;-84
2021/11/19 02:38:28;;;;;;;2.92;1.77;;;;;;;9.82;72.20;100747.53;4906539;28;100039;-81
2021/11/19 02:40:53;;;;;;;5.65;1.70;;;;;;;9.81;71.52;100737.94;4921122;28;100434;-84
2021/11/19 02:43:33;;;;;;;3.15;2.05;;;;;;;9.81;71.55;100744.94;4937333;28;96664;-83
2021/11/19 02:45:59;;;;;;;2.88;1.67;;;;;;;9.79;72.07;100746.75;4905358;28;96833;-83
2021/11/19 02:48:31;;;;;;;2.38;1.80;;;;;;;9.82;71.73;100744.03;4935794;28;99580;-82
2021/11/19 02:51:01;;;;;;;2.15;1.92;;;;;;;9.78;71.94;100750.28;4920916;28;100519;-85
2021/11/19 02:53:28;;;;;;;2.40;1.80;;;;;;;9.77;72.24;100743.28;4921233;28;96518;-82
2021/11/19 02:55:56;;;;;;;2.50;1.70;;;;;;;9.80;72.53;100749.31;4936695;28;96776;-84
2021/11/19 02:58:27;;;;;;;2.47;1.90;;;;;;;9.82;72.03;100759.78;4904378;28;100036;-81
2021/11/19 03:01:33;;;;;;;2.67;1.63;;;;;;;9.83;72.25;100748.38;4904379;28;100599;-81
2021/11/19 03:04:02;;;;;;;2.55;1.80;;;;;;;9.88;71.78;100742.13;4900601;28;96747;-84
2021/11/19 03:06:28;;;;;;;2.05;1.80;;;;;;;9.83;72.03;100744.03;4931112;28;97046;-84
2021/11/19 03:08:53;;;;;;;1.75;1.63;;;;;;;9.77;72.73;100741.50;4936539;28;99042;-81
2021/11/19 03:11:19;;;;;;;3.03;1.80;;;;;;;9.81;72.68;100735.31;4920249;28;99681;-82
2021/11/19 03:13:45;;;;;;;1.48;1.38;;;;;;;9.75;72.45;100733.72;4904751;28;96420;-82
2021/11/19 03:16:11;;;;;;;1.88;1.50;;;;;;;9.73;73.04;100745.97;4953094;28;96621;-81
2021/11/19 03:18:36;;;;;;;2.92;1.75;;;;;;;9.77;72.73;100741.50;4920674;28;99797;-81
2021/11/19 03:21:06;;;;;;;2.40;1.85;;;;;;;9.84;72.85;100739.63;4936174;28;100213;-83
2021/11/19 03:23:34;;;;;;;1.65;1.33;;;;;;;9.88;73.09;100736.03;4904731;28;96585;-84
2021/11/19 03:26:01;;;;;;;1.67;1.50;;;;;;;9.90;73.23;100735.09;4920668;28;96412;-82
2021/11/19 03:28:28;;;;;;;2.25;1.80;;;;;;;9.90;73.11;100737.72;4936382;28;97761;-84
2021/11/19 03:31:00;;;;;;;2.03;1.50;;;;;;;9.89;72.85;100738.63;4920509;28;100270;-82
2021/11/19 03:33:28;;;;;;;2.25;1.65;;;;;;;9.90;73.42;100742.09;4920779;28;96689;-82
2021/11/19 03:35:54;;;;;;;2.92;1.63;;;;;;;9.91;73.07;100733.31;4920633;28;96809;-82
2021/11/19 03:38:22;;;;;;;2.63;1.40;;;;;;;9.90;72.92;100736.84;4952067;28;97977;-83
2021/11/19 03:40:49;;;;;;;2.10;1.40;;;;;;;9.88;73.40;100733.41;4919353;28;99542;-84
2021/11/19 03:43:21;;;;;;;2.25;1.60;;;;;;;9.84;73.30;100740.50;4923711;28;96428;-83
2021/11/19 03:45:52;;;;;;;1.73;1.38;;;;;;;9.85;73.48;100736.97;4924139;28;96720;-84
2021/11/19 03:48:18;;;;;;;5.22;1.65;;;;;;;9.84;73.13;100737.88;4923104;28;100704;-81
2021/11/19 03:50:48;;;;;;;3.20;1.80;;;;;;;9.88;73.54;100736.03;4955924;28;97703;-81
2021/11/19 03:53:15;;;;;;;2.08;1.40;;;;;;;9.95;72.96;100732.38;4923755;28;96475;-83
2021/11/19 03:55:46;;;;;;;3.35;1.60;;;;;;;9.95;72.84;100737.63;4940227;28;96883;-81
2021/11/19 03:58:32;;;;;;;2.08;1.85;;;;;;;9.92;73.80;100738.53;4907198;28;99989;-82
2021/11/19 04:01:03;;;;;;;2.85;1.67;;;;;;;9.94;73.65;100735.88;4922871;28;100595;-83
2021/11/19 04:03:29;;;;;;;3.10;1.60;;;;;;;9.90;73.72;100731.63;4923513;28;96527;-81
2021/11/19 04:05:55;;;;;;;2.90;1.60;;;;;;;9.90;73.67;100735.09;4939689;28;96721;-81
2021/11/19 04:08:21;;;;;;;2.00;1.60;;;;;;;9.88;74.06;100738.66;4955294;28;100290;-83
2021/11/19 04:10:56;;;;;;;2.80;2.53;;;;;;;9.93;73.67;100728.91;4938879;28;99668;-83
2021/11/19 04:13:22;;;;;;;1.83;1.70;;;;;;;9.97;73.62;100725.28;4939829;28;96791;-83
2021/11/19 04:15:57;;;;;;;2.90;1.90;;;;;;;9.94;74.19;100733.25;4939416;28;96919;-82
2021/11/19 04:18:23;;;;;;;2.67;2.08;;;;;;;9.93;74.32;100731.53;4922867;28;100727;-80
2021/11/19 04:20:50;;;;;;;2.63;2.13;;;;;;;9.90;73.96;100737.72;4923415;28;97410;-82
2021/11/19 04:23:16;;;;;;;2.95;2.50;;;;;;;9.88;74.53;100734.25;4923645;28;97003;-81
2021/11/19 04:25:44;;;;;;;4.35;2.55;;;;;;;9.90;74.07;100735.09;4923401;28;96788;-81
2021/11/19 04:28:10;;;;;;;4.32;3.10;;;;;;;9.93;74.06;100728.91;4922411;28;100541;-79
2021/11/19 04:30:56;;;;;;;4.35;2.25;;;;;;;9.89;74.60;100736.00;4939439;28;96881;-81
2021/11/19 04:33:24;;;;;;;4.00;2.90;;;;;;;9.96;74.37;100739.31;4923523;28;96551;-84
2021/11/19 04:35:52;;;;;;;4.60;2.88;;;;;;;9.92;74.27;100738.53;4923190;28;96939;-83
2021/11/19 04:38:19;;;;;;;4.05;3.15;;;;;;;9.94;74.73;100733.25;4938495;28;100136;-81
2021/11/19 04:40:45;;;;;;;3.05;2.75;;;;;;;9.89;74.59;100733.38;4922322;28;98443;-84
2021/11/19 04:43:14;;;;;;;4.45;3.00;;;;;;;9.94;74.98;100738.50;4954928;28;96512;-81
2021/11/19 04:45:40;;;;;;;4.82;3.08;;;;;;;9.97;74.59;100735.78;4955613;28;96808;-82
2021/11/19 04:48:07;;;;;;;5.60;3.22;;;;;;;9.98;74.46;100735.78;4938909;28;97682;-84
2021/11/19 04:50:36;;;;;;;4.38;3.10;;;;;;;9.93;75.00;100726.28;4922397;28;100176;-82
2021/11/19 04:53:04;;;;;;;5.35;3.50;;;;;;;10.00;74.43;100727.84;4938230;28;96481;-82
2021/11/19 04:55:30;;;;;;;5.25;3.60;;;;;;;9.93;74.73;100726.28;4922927;28;96766;-81
2021/11/19 04:57:56;;;;;;;4.90;3.60;;;;;;;10.01;74.92;100715.63;4954556;28;100318;-84
2021/11/19 05:00:36;;;;;;;3.42;3.10;;;;;;;9.97;74.33;100718.28;4938097;28;100426;-83
2021/11/19 05:03:17;;;;;;;6.47;4.20;;;;;;;9.95;74.90;100707.00;4911094;28;96600;-83
2021/11/19 05:05:44;;;;;;;5.10;3.83;;;;;;;9.97;74.95;100715.66;4906611;28;96890;-85
2021/11/19 05:08:09;;;;;;;9.55;4.22;;;;;;;9.96;75.15;100720.97;4922059;28;100351;-85
2021/11/19 05:10:41;;;;;;;6.45;4.30;;;;;;;9.98;74.60;100724.41;4938411;28;100504;-81
2021/11/19 05:13:08;;;;;;;8.63;4.50;;;;;;;9.96;75.12;100713.09;4922419;28;96865;-81
2021/11/19 05:15:41;;;;;;;7.18;4.55;;;;;;;9.95;74.79;100708.75;4923153;28;96443;-82
2021/11/19 05:18:07;;;;;;;8.23;4.40;;;;;;;9.93;75.24;100715.81;4953844;28;99696;-83
2021/11/19 05:20:33;;;;;;;6.43;4.50;;;;;;;9.95;75.19;100716.63;4937913;28;98583;-83
2021/11/19 05:22:58;;;;;;;7.25;4.70;;;;;;;9.92;75.15;100714.09;4922225;28;96623;-82
2021/11/19 05:25:27;;;;;;;8.35;4.90;;;;;;;9.96;75.09;100710.47;4938300;28;96821;-82
2021/11/19 05:27:53;;;;;;;8.15;5.35;;;;;;;9.94;75.01;100713.13;4905733;28;100849;-80
2021/11/19 05:30:21;;;;;;;7.95;4.88;;;;;;;9.99;74.92;100715.63;4954209;28;97654;-84
2021/11/19 05:33:05;;;;;;;7.60;4.93;;;;;;;9.99;75.31;100723.50;4924635;28;96613;-81
2021/11/19 05:35:33;;;;;;;7.88;4.53;;;;;;;10.03;74.78;100717.28;4938544;28;96945;-82
2021/11/19 05:37:59;;;;;;;8.05;4.85;;;;;;;10.02;75.23;100718.19;4921638;28;100587;-83
2021/11/19 05:40:26;;;;;;;7.85;5.30;;;;;;;10.02;74.79;100720.81;4953594;28;99969;-82
2021/11/19 05:42:52;;;;;;;7.25;4.68;;;;;;;10.00;75.19;100721.75;4937574;28;96507;-81
2021/11/19 05:45:21;;;;;;;6.13;4.93;;;;;;;10.07;75.07;100729.44;4921996;28;96876;-82
2021/11/19 05:48:01;;;;;;;7.47;4.90;;;;;;;10.09;74.94;100718.88;4923073;28;99820;-84
2021/11/19 05:50:30;;;;;;;8.10;4.60;;;;;;;10.06;75.04;100714.56;4905801;28;99924;-81
2021/11/19 05:53:01;;;;;;;7.35;5.13;;;;;;;10.02;75.41;100707.69;4938463;28;96403;-84
2021/11/19 05:55:31;;;;;;;9.57;5.10;;;;;;;10.07;75.25;100729.44;4906853;28;96831;-81
2021/11/19 05:57:57;;;;;;;8.57;5.00;;;;;;;10.06;75.24;100718.97;4921293;28;100634;-81
2021/11/19 06:00:27;;;;;;;6.47;4.60;;;;;;;10.08;74.60;100725.91;4921319;28;99450;-83
2021/11/19 06:03:02;;;;;;;9.48;4.93;;;;;;;10.03;75.21;100724.28;4922780;28;96394;-81
2021/11/19 06:05:28;;;;;;;7.60;4.72;;;;;;;10.09;75.11;100724.97;4953542;28;96790;-83
2021/11/19 06:08:11;;;;;;;8.18;4.60;;;;;;;10.10;75.02;100728.50;4936499;28;100482;-82
2021/11/19 06:10:44;;;;;;;7.68;4.72;;;;;;;10.08;74.72;100743.41;4904661;28;100607;-82
2021/11/19 06:13:13;;;;;;;6.28;4.55;;;;;;;10.12;75.03;100739.78;4937490;28;96825;-81
2021/11/19 06:15:51;;;;;;;8.23;4.85;;;;;;;10.08;74.64;100735.53;4904797;28;96956;-82
2021/11/19 06:18:32;;;;;;;6.70;5.22;;;;;;;10.11;74.82;100744.19;4920846;28;98070;-79
2021/11/19 06:21:02;;;;;;;8.67;5.23;;;;;;;10.08;75.22;100748.66;4904525;28;100085;-81
2021/11/19 06:23:41;;;;;;;7.68;4.68;;;;;;;10.14;74.92;100753.72;4921231;28;96720;-79
2021/11/19 06:26:09;;;;;;;6.97;4.68;;;;;;;10.17;75.06;100745.78;4921636;28;96962;-79
2021/11/19 06:28:45;;;;;;;7.80;4.32;;;;;;;10.13;74.67;100750.25;4921078;28;100766;-79
2021/11/19 06:31:15;;;;;;;7.28;5.13;;;;;;;10.16;75.07;100751.94;4952814;28;100173;-79
2021/11/19 06:33:40;;;;;;;8.90;5.10;;;;;;;10.17;74.77;100764.16;4920308;28;96750;-79
2021/11/19 06:36:07;;;;;;;8.68;5.15;;;;;;;10.20;74.82;100771.94;4936777;28;96921;-79
2021/11/19 06:38:34;;;;;;;5.35;4.32;;;;;;;10.20;75.35;100767.53;4952703;28;100925;-79
2021/11/19 06:41:05;;;;;;;8.50;5.00;;;;;;;10.22;74.95;100772.78;4920938;28;100088;-80
2021/11/19 06:43:49;;;;;;;7.82;5.43;;;;;;;10.24;74.83;100777.97;4934317;28;96662;-79
2021/11/19 06:46:32;;;;;;;6.32;4.72;;;;;;;10.25;74.63;100774.47;4950803;28;96780;-79
2021/11/19 06:49:18;;;;;;;8.35;4.97;;;;;;;10.19;74.89;100781.56;4936188;28;100101;-79
2021/11/19 06:52:13;;;;;;;6.68;4.88;;;;;;;10.29;74.40;100781.38;4927592;28;97754;-79
2021/11/19 06:54:57;;;;;;;7.03;4.93;;;;;;;10.27;74.78;100784.06;4920661;28;96641;-79
2021/11/19 06:57:38;;;;;;;9.35;5.22;;;;;;;10.28;74.63;100787.53;4922530;28;96822;-79
2021/11/19 07:00:10;;;;;;;6.53;4.65;;;;;;;10.27;74.84;100786.69;4919616;28;99923;-79
2021/11/19 07:02:36;;;;;;;6.50;4.85;;;;;;;10.30;74.76;100788.38;4920032;28;100558;-79
2021/11/19 07:05:01;;;;;;;7.10;5.00;;;;;;;10.31;74.57;100792.69;4920564;28;96540;-79
2021/11/19 07:07:27;;;;;;;8.40;5.18;;;;;;;10.33;74.29;100791.75;4952741;28;96822;-79
2021/11/19 07:09:54;;;;;;;7.85;5.35;;;;;;;10.29;74.39;100797.97;4936238;28;100492;-79
2021/11/19 07:12:20;;;;;;;6.88;4.90;;;;;;;10.34;74.60;100805.75;4952020;28;99780;-79
2021/11/19 07:14:52;;;;;;;7.93;5.35;;;;;;;10.34;74.23;100803.13;4905828;28;96488;-78
2021/11/19 07:17:21;;;;;;;7.97;4.90;;;;;;;10.34;74.54;100801.34;4924031;28;96445;-78
2021/11/19 07:19:52;;;;;;;8.05;5.10;;;;;;;10.39;74.83;100803.88;4955111;28;100732;-78
2021/11/19 07:22:54;;;;;;;13.13;7.30;;;;;;;10.41;74.37;100807.28;4955211;28;97319;-78
2021/11/19 07:25:42;;;;;;;7.15;5.55;;;;;;;10.36;74.94;100803.94;4917554;28;96795;-77
2021/11/19 07:28:26;;;;;;;9.57;6.00;;;;;;;10.33;74.94;100804.88;4924605;28;97069;-77
2021/11/19 07:31:39;;;;;;;9.55;5.47;;;;;;;10.41;74.74;100802.94;4928191;28;98582;-78
2021/11/19 07:38:57;;;;;;;7.82;5.68;;;;;;;10.44;75.00;100817.72;4937856;28;96572;-78
2021/11/19 07:41:43;;;;;;;9.50;5.60;;;;;;;10.46;74.88;100817.69;4939043;28;96810;-78
2021/11/19 07:44:27;;;;;;;10.18;5.85;;;;;;;10.43;74.67;100816.84;4936282;28;97246;-78
2021/11/19 07:46:57;;;;;;;7.30;5.40;;;;;;;10.46;74.77;100817.69;4923879;28;100112;-78
2021/11/19 07:49:23;;;;;;;8.05;5.90;;;;;;;10.48;74.42;100822.00;4939647;28;96427;-78
2021/11/19 07:51:52;;;;;;;7.70;5.10;;;;;;;10.55;74.82;100834.06;4939437;28;96945;-79
2021/11/19 07:54:19;;;;;;;8.27;4.82;;;;;;;10.52;74.78;100826.25;4922616;28;100601;-78
2021/11/19 07:56:46;;;;;;;10.85;5.63;;;;;;;10.57;74.66;100828.78;4906438;28;100199;-78
2021/11/19 07:59:16;;;;;;;8.32;4.70;;;;;;;10.57;74.49;100826.16;4923232;28;96706;-78
2021/11/19 08:01:43;;;;;;;8.75;5.07;;;;;;;10.58;74.48;100833.13;4907176;28;96817;-78
2021/11/19 08:04:09;;;;;;;9.35;4.63;;;;;;;10.59;74.40;100826.97;4955178;28;100117;-78
2021/11/19 08:06:35;;;;;;;12.38;5.85;;;;;;;10.61;74.52;100826.00;4938776;28;100402;-78
2021/11/19 08:09:24;;;;;;;6.13;4.82;;;;;;;10.66;74.40;100836.41;4938523;28;96996;-79
2021/11/19 08:11:58;;;;;;;8.30;5.00;;;;;;;10.64;74.73;100838.19;4954402;28;96515;-77
2021/11/19 08:14:27;;;;;;;10.40;5.47;;;;;;;10.63;74.30;100839.97;4938629;28;97976;-78
2021/11/19 08:17:00;;;;;;;9.70;4.60;;;;;;;10.70;74.73;100837.19;4922738;28;99777;-78
2021/11/19 08:19:46;;;;;;;7.40;4.72;;;;;;;10.61;74.54;100828.63;4938506;28;96411;-80
2021/11/19 08:22:15;;;;;;;6.05;4.85;;;;;;;10.65;74.49;100830.31;4939073;28;96778;-80
2021/11/19 08:24:42;;;;;;;8.02;5.30;;;;;;;10.68;74.35;100833.75;4954313;28;100835;-79
2021/11/19 08:27:23;;;;;;;8.60;5.03;;;;;;;10.71;74.30;100845.03;4905092;28;100159;-79
2021/11/19 08:29:53;;;;;;;7.13;4.63;;;;;;;10.70;74.77;100845.91;4938907;28;96665;-79
2021/11/19 08:32:20;;;;;;;10.82;5.03;;;;;;;10.71;74.44;100841.56;4906656;28;96845;-80
2021/11/19 08:34:48;;;;;;;6.50;4.70;;;;;;;10.74;74.41;100847.56;4938115;28;100703;-81
2021/11/19 08:37:14;;;;;;;5.97;4.60;;;;;;;10.76;74.35;100850.16;4938528;28;99999;-80
2021/11/19 08:39:40;;;;;;;8.88;5.35;;;;;;;10.73;74.32;100848.47;4939034;28;96710;-79
2021/11/19 08:42:08;;;;;;;9.10;5.45;;;;;;;10.77;74.46;100847.50;4938750;28;96846;-79
2021/11/19 08:44:34;;;;;;;7.80;5.35;;;;;;;10.81;74.11;100850.91;4953876;28;97973;-81
2021/11/19 08:46:59;;;;;;;7.70;5.18;;;;;;;10.84;74.01;100853.44;4921982;28;99964;-79
2021/11/19 08:49:30;;;;;;;9.82;5.32;;;;;;;10.86;74.41;100849.88;4938823;28;96532;-81
2021/11/19 08:51:56;;;;;;;8.07;4.10;;;;;;;10.87;73.94;100853.34;4938476;28;96751;-79
2021/11/19 08:54:24;;;;;;;6.65;4.35;;;;;;;10.86;74.25;100839.38;4938187;28;97872;-80
2021/11/19 08:56:53;;;;;;;6.28;4.65;;;;;;;10.90;74.15;100850.66;4905716;28;100143;-80
2021/11/19 08:59:19;;;;;;;8.20;3.92;;;;;;;10.90;74.17;100850.66;4954487;28;96867;-81
2021/11/19 09:01:48;;;;;;;8.18;4.15;;;;;;;10.91;74.11;100860.28;4938971;28;96833;-80
2021/11/19 09:04:14;;;;;;;4.55;3.90;;;;;;;10.90;74.40;100853.28;4905492;28;100294;-80
2021/11/19 09:06:40;;;;;;;5.70;3.70;;;;;;;10.94;74.32;100861.91;4921670;28;100420;-79
2021/11/19 09:09:08;;;;;;;6.68;3.60;;;;;;;10.97;74.10;100854.00;4921884;28;96929;-78
2021/11/19 09:11:34;;;;;;;6.10;4.05;;;;;;;10.98;74.21;100868.84;4938431;28;96845;-79
2021/11/19 09:14:00;;;;;;;5.25;3.65;;;;;;;11.00;74.06;100867.03;4921418;28;100320;-77
2021/11/19 09:16:35;;;;;;;5.15;3.42;;;;;;;11.00;73.99;100870.53;4938154;28;97431;-78
2021/11/19 09:19:04;;;;;;;4.95;3.53;;;;;;;10.98;74.03;100874.09;4938814;28;96637;-79
2021/11/19 09:21:36;;;;;;;6.82;3.58;;;;;;;11.04;74.09;100869.53;4939525;28;96731;-77
2021/11/19 09:24:08;;;;;;;7.03;3.50;;;;;;;10.98;74.60;100856.56;4921650;28;97708;-78
2021/11/19 09:26:45;;;;;;;6.22;3.65;;;;;;;11.05;73.89;100849.34;4954363;28;97513;-79
2021/11/19 09:29:29;;;;;;;4.85;3.67;;;;;;;11.04;74.31;100863.41;4954555;28;96578;-78
2021/11/19 09:31:55;;;;;;;4.38;3.08;;;;;;;11.00;73.92;100864.41;4905878;28;96813;-79
2021/11/19 09:34:21;;;;;;;5.65;3.50;;;;;;;11.05;74.10;100859.88;4937347;28;98061;-79
2021/11/19 09:36:47;;;;;;;7.65;3.55;;;;;;;11.08;73.99;100847.53;4937542;28;97786;-79
2021/11/19 09:39:14;;;;;;;6.90;3.38;;;;;;;11.10;73.97;100861.47;4904561;28;96463;-81
2021/11/19 09:41:48;;;;;;;7.97;3.35;;;;;;;11.10;74.05;100866.72;4938002;28;96771;-80
2021/11/19 09:44:44;;;;;;;7.05;3.17;;;;;;;11.10;74.10;100865.88;4921220;28;99039;-81
2021/11/19 09:47:33;;;;;;;5.90;3.22;;;;;;;11.07;74.10;100863.31;4953642;28;99959;-82
2021/11/19 09:50:17;;;;;;;3.08;2.53;;;;;;;11.13;73.82;100867.56;4918974;28;96867;-81
2021/11/19 09:53:10;;;;;;;3.63;3.22;;;;;;;11.15;74.18;100866.59;4954728;28;96588;-82
2021/11/19 09:56:21;;;;;;;5.45;2.90;;;;;;;11.19;74.04;100855.09;4953440;28;100361;-81
2021/11/19 09:59:17;;;;;;;7.30;3.55;;;;;;;11.18;74.00;100866.53;4884452;28;99770;-82
2021/11/19 10:02:02;;;;;;;4.22;3.10;;;;;;;11.22;73.56;100859.41;4900921;28;96672;-83
2021/11/19 10:05:05;;;;;;;5.03;3.00;;;;;;;11.15;73.85;100848.22;4931409;28;96763;-80
2021/11/19 10:08:01;;;;;;;6.00;2.95;;;;;;;11.16;74.05;100847.31;4937252;28;100707;-81
2021/11/19 10:10:51;;;;;;;5.22;2.67;;;;;;;11.20;73.69;100841.06;4953458;28;97441;-81
2021/11/19 10:13:28;;;;;;;4.75;2.70;;;;;;;11.25;73.29;100840.94;4937496;28;96727;-82
2021/11/19 10:16:14;;;;;;;5.15;2.90;;;;;;;11.27;73.68;100842.59;4938521;28;96566;-79
2021/11/19 10:18:47;;;;;;;3.53;3.20;;;;;;;11.32;73.37;100835.47;4926434;28;98000;-85
2021/11/19 10:21:28;;;;;;;3.47;2.67;;;;;;;11.36;73.26;100836.22;4921139;28;100536;-82
2021/11/19 10:23:59;;;;;;;3.80;2.70;;;;;;;11.34;73.60;100835.41;4937328;28;96613;-83
2021/11/19 10:26:26;;;;;;;6.07;3.20;;;;;;;11.32;73.38;100831.97;4920943;28;96756;-85
2021/11/19 10:29:02;;;;;;;3.90;2.90;;;;;;;11.34;73.44;100830.13;4937075;28;100301;-88
2021/11/19 10:31:28;;;;;;;6.32;3.10;;;;;;;11.39;73.58;100836.13;4922116;28;100026;-89
2021/11/19 10:34:08;;;;;;;4.60;2.83;;;;;;;11.36;73.59;100835.38;4922438;28;96472;-88
2021/11/19 10:36:48;;;;;;;4.55;3.10;;;;;;;11.40;73.44;100835.22;4938315;28;96805;-86
2021/11/19 10:39:50;;;;;;;6.13;3.28;;;;;;;11.42;73.28;100837.81;4937726;28;99777;-87
2021/11/19 10:42:31;;;;;;;4.03;2.90;;;;;;;11.46;73.12;100826.28;4937102;28;96625;-82
2021/11/19 10:45:24;;;;;;;5.20;2.83;;;;;;;11.51;73.16;100819.13;4938671;28;96478;-82
2021/11/19 10:48:18;;;;;;;4.88;2.72;;;;;;;11.57;72.70;100817.16;4953533;28;96703;-81
2021/11/19 10:51:05;;;;;;;5.00;2.72;;;;;;;11.49;73.02;100815.69;4936088;28;100788;-83
2021/11/19 10:54:08;;;;;;;4.13;2.88;;;;;;;11.51;73.20;100817.38;4953085;28;97399;-82
2021/11/19 10:56:56;;;;;;;3.58;2.83;;;;;;;11.54;72.60;100809.38;4936461;28;96447;-83
2021/11/19 10:59:38;;;;;;;3.10;2.20;;;;;;;11.55;72.29;100813.75;4936530;28;96880;-84
2021/11/19 11:02:10;;;;;;;4.07;2.90;;;;;;;11.54;72.63;100805.91;4952674;28;98698;-72
2021/11/19 11:04:38;;;;;;;4.70;2.65;;;;;;;11.61;73.32;100807.44;4938121;28;97395;-84
2021/11/19 11:07:36;;;;;;;3.38;2.65;;;;;;;11.56;72.10;100790.94;4937038;28;96490;-84
2021/11/19 11:10:14;;;;;;;4.13;2.33;;;;;;;11.56;72.62;100791.81;4934584;28;96679;-83
2021/11/19 11:12:46;;;;;;;3.90;2.20;;;;;;;11.52;72.62;100792.81;4936309;28;101227;-83
2021/11/19 11:15:15;;;;;;;;;;;;;;;11.52;72.49;100791.97;4938434;28;97391;-82
2021/11/19 11:18:04;;;;;;;4.57;2.25;;;;;;;11.53;72.49;100780.53;4969098;28;96580;-84
2021/11/19 11:20:33;;;;;;;3.45;2.22;;;;;;;11.54;72.72;100780.47;4953222;28;96582;-84
2021/11/19 11:23:03;;;;;;;3.28;2.28;;;;;;;11.56;72.57;100786.53;4935212;28;100584;-83
2021/11/19 11:25:36;;;;;;;2.63;2.30;;;;;;;11.53;72.56;100777.91;4935810;28;100423;-83
2021/11/19 11:28:12;;;;;;;4.93;2.33;;;;;;;11.61;72.16;100794.31;4952717;28;96523;-83
2021/11/19 11:30:49;;;;;;;3.17;2.47;;;;;;;11.63;72.27;100786.34;4936267;28;96589;-83
2021/11/19 11:33:31;;;;;;;3.63;2.60;;;;;;;11.64;72.33;100790.72;4936031;28;97996;-84
2021/11/19 11:36:10;;;;;;;3.13;2.10;;;;;;;11.67;72.37;100791.47;4903432;28;99576;-84
2021/11/19 11:38:48;;;;;;;6.65;2.22;;;;;;;11.65;72.80;100798.53;4952720;28;96414;-84
2021/11/19 11:41:25;;;;;;;5.82;2.80;;;;;;;11.69;72.58;100792.31;4952927;28;96585;-82
2021/11/19 11:44:10;;;;;;;3.13;2.35;;;;;;;11.64;72.39;100796.84;4935658;28;99982;-82
2021/11/19 11:47:02;;;;;;;4.72;2.30;;;;;;;11.64;72.08;100798.59;4903618;28;100212;-82
2021/11/19 11:49:30;;;;;;;5.13;2.20;;;;;;;11.66;72.39;100802.03;4920054;28;96758;-82
2021/11/19 11:52:29;;;;;;;3.17;2.40;;;;;;;11.65;72.47;100803.81;4935937;28;96892;-80
2021/11/19 11:55:07;;;;;;;6.35;3.30;;;;;;;11.71;72.22;100803.59;4935720;28;98040;-81
2021/11/19 11:57:40;;;;;;;3.67;2.58;;;;;;;11.70;72.32;100795.78;4935384;28;100623;-80
2021/11/19 12:00:18;;;;;;;3.88;2.40;;;;;;;11.68;72.63;100800.22;4935552;28;96482;-82